Time;durP1;ratioP1;P1;durP2;ratioP2;P2;SDS_P1;SDS_P2;PMS_P1;PMS_P2;Temp;Humidity;BMP_temperature;BMP_pressure;BME280_temperature;BME280_humidity;BME280_pressure;Samples;Min_cycle;Max_cycle;Signal;HPM_P1;HPM_P2
2022/04/23 00:01:30;;;;;;;9.00;8.20;;;;;;;;;;4997636;28;20667;-58
2022/04/23 00:03:56;;;;;;;9.03;8.13;;;;;;;;;;5005186;28;20200;-59
2022/04/23 00:06:22;;;;;;;8.63;7.73;;;;;;;;;;5001565;28;20218;-58
2022/04/23 00:08:48;;;;;;;9.07;7.63;;;;;;;;;;5004157;28;20190;-58
2022/04/23 00:11:14;;;;;;;7.87;7.17;;;;;;;;;;5002179;28;21356;-58
2022/04/23 00:13:40;;;;;;;8.37;7.63;;;;;;;;;;5005446;28;20202;-59
2022/04/23 00:16:06;;;;;;;8.53;7.73;;;;;;;;;;4998030;28;20193;-59
2022/04/23 00:18:32;;;;;;;8.53;7.73;;;;;;;;;;4998944;28;20777;-59
2022/04/23 00:20:58;;;;;;;7.70;7.00;;;;;;;;;;4994792;28;20224;-58
2022/04/23 00:23:25;;;;;;;10.50;7.63;;;;;;;;;;4999689;28;20189;-58
2022/04/23 00:25:52;;;;;;;8.83;8.03;;;;;;;;;;5000328;28;20186;-58
2022/04/23 00:28:18;;;;;;;9.03;8.13;;;;;;;;;;4999500;28;20564;-59
2022/04/23 00:30:47;;;;;;;9.00;8.20;;;;;;;;;;5001918;28;20235;-59
2022/04/23 00:33:13;;;;;;;8.83;8.03;;;;;;;;;;5000567;28;20196;-59
2022/04/23 00:35:39;;;;;;;8.57;7.77;;;;;;;;;;5006332;28;20189;-59
2022/04/23 00:38:07;;;;;;;8.77;7.97;;;;;;;;;;4996517;28;20214;-59
2022/04/23 00:40:33;;;;;;;8.17;7.37;;;;;;;;;;5005817;28;20195;-59
2022/04/23 00:43:00;;;;;;;8.90;8.10;;;;;;;;;;4996273;28;20629;-59
2022/04/23 00:45:26;;;;;;;8.67;7.87;;;;;;;;;;4991168;28;20270;-58
2022/04/23 00:47:53;;;;;;;8.97;8.07;;;;;;;;;;4992732;28;20205;-59
2022/04/23 00:50:22;;;;;;;8.17;7.07;;;;;;;;;;4990736;28;20194;-58
2022/04/23 00:52:51;;;;;;;11.13;7.80;;;;;;;;;;5002901;28;20690;-58
2022/04/23 00:55:17;;;;;;;8.60;7.73;;;;;;;;;;4998835;28;20201;-59
2022/04/23 00:57:43;;;;;;;9.03;8.17;;;;;;;;;;5007730;28;20698;-59
2022/04/23 01:00:09;;;;;;;9.30;8.40;;;;;;;;;;5004222;28;20189;-58
2022/04/23 01:02:36;;;;;;;8.70;7.90;;;;;;;;;;5006847;28;20200;-58
2022/04/23 01:05:03;;;;;;;9.20;8.30;;;;;;;;;;4995221;28;20965;-58
2022/04/23 01:07:29;;;;;;;8.80;7.90;;;;;;;;;;4996052;28;20205;-59
2022/04/23 01:09:55;;;;;;;9.67;8.77;;;;;;;;;;4996479;28;20197;-59
2022/04/23 01:12:21;;;;;;;9.23;8.17;;;;;;;;;;5000939;28;20223;-58
2022/04/23 01:15:00;;;;;;;9.50;8.60;;;;;;;;;;5004345;28;20220;-58
2022/04/23 01:17:26;;;;;;;9.67;8.40;;;;;;;;;;5005645;28;20196;-58
2022/04/23 01:19:52;;;;;;;9.27;8.27;;;;;;;;;;4999695;28;20189;-58
2022/04/23 01:22:17;;;;;;;8.90;8.00;;;;;;;;;;5001882;28;20223;-59
2022/04/23 01:24:43;;;;;;;10.60;8.37;;;;;;;;;;5001035;28;20735;-58
2022/04/23 01:27:12;;;;;;;9.33;8.43;;;;;;;;;;5002684;28;20516;-58
2022/04/23 01:29:38;;;;;;;9.83;8.83;;;;;;;;;;5002442;28;20646;-58
2022/04/23 01:32:05;;;;;;;10.20;9.20;;;;;;;;;;4995134;28;20282;-58
2022/04/23 01:34:31;;;;;;;9.60;8.70;;;;;;;;;;5005688;28;20664;-58
2022/04/23 01:36:57;;;;;;;9.60;8.70;;;;;;;;;;5001779;28;20268;-58
2022/04/23 01:39:23;;;;;;;9.37;8.47;;;;;;;;;;5002447;28;20221;-58
2022/04/23 01:41:49;;;;;;;9.47;8.63;;;;;;;;;;4995691;28;20198;-58
2022/04/23 01:44:15;;;;;;;9.70;8.80;;;;;;;;;;5003591;28;20201;-59
2022/04/23 01:46:41;;;;;;;9.80;8.90;;;;;;;;;;4992526;28;20200;-59
2022/04/23 01:49:07;;;;;;;10.70;9.60;;;;;;;;;;4993128;28;20647;-59
2022/04/23 01:51:33;;;;;;;9.80;8.90;;;;;;;;;;4999303;28;21414;-57
2022/04/23 01:53:59;;;;;;;10.13;9.13;;;;;;;;;;4999345;28;20598;-58
2022/04/23 01:56:25;;;;;;;9.97;9.00;;;;;;;;;;5003940;28;20572;-59
2022/04/23 01:58:51;;;;;;;10.20;9.30;;;;;;;;;;4994656;28;20217;-59
2022/04/23 02:01:20;;;;;;;11.17;10.17;;;;;;;;;;4997642;28;20264;-58
2022/04/23 02:03:46;;;;;;;11.33;10.27;;;;;;;;;;4997042;28;20700;-59
2022/04/23 02:06:13;;;;;;;9.40;8.50;;;;;;;;;;5005331;28;20199;-59
2022/04/23 02:08:39;;;;;;;10.07;9.13;;;;;;;;;;5011204;28;20204;-59
2022/04/23 02:11:05;;;;;;;10.87;9.50;;;;;;;;;;5009696;28;20189;-59
2022/04/23 02:13:31;;;;;;;10.70;9.70;;;;;;;;;;5003757;28;20336;-58
2022/04/23 02:15:57;;;;;;;11.20;10.10;;;;;;;;;;5007905;28;20190;-59
2022/04/23 02:18:26;;;;;;;9.97;9.07;;;;;;;;;;5004481;28;20569;-58
2022/04/23 02:20:52;;;;;;;10.27;9.37;;;;;;;;;;5000303;28;20381;-58
2022/04/23 02:23:18;;;;;;;11.77;10.57;;;;;;;;;;4996295;28;20193;-58
2022/04/23 02:25:44;;;;;;;11.27;10.07;;;;;;;;;;4998667;28;20257;-59
2022/04/23 02:28:10;;;;;;;11.23;10.23;;;;;;;;;;4998822;28;20189;-58
2022/04/23 02:30:36;;;;;;;11.63;10.60;;;;;;;;;;4997386;28;20300;-58
2022/04/23 02:33:02;;;;;;;10.90;9.90;;;;;;;;;;5001623;28;20670;-59
2022/04/23 02:35:28;;;;;;;11.23;10.13;;;;;;;;;;4996845;28;20193;-59
2022/04/23 02:37:56;;;;;;;11.33;10.23;;;;;;;;;;4999082;28;20255;-57
2022/04/23 02:40:22;;;;;;;11.20;10.20;;;;;;;;;;5003119;28;20276;-59
2022/04/23 02:42:51;;;;;;;11.73;10.53;;;;;;;;;;5006563;28;20268;-58
2022/04/23 02:45:17;;;;;;;12.17;10.93;;;;;;;;;;5004268;28;20273;-58
2022/04/23 02:47:50;;;;;;;12.57;11.47;;;;;;;;;;4999410;28;20193;-59
2022/04/23 02:50:17;;;;;;;12.10;10.90;;;;;;;;;;4991585;28;21130;-59
2022/04/23 02:52:43;;;;;;;11.67;10.67;;;;;;;;;;5002380;28;20198;-58
2022/04/23 02:55:11;;;;;;;11.80;10.70;;;;;;;;;;4994215;28;20200;-58
2022/04/23 02:57:37;;;;;;;13.13;11.87;;;;;;;;;;5002586;28;20198;-58
2022/04/23 03:00:04;;;;;;;13.20;11.87;;;;;;;;;;4996185;28;20709;-58
2022/04/23 03:02:30;;;;;;;13.40;12.10;;;;;;;;;;5000111;28;20197;-59
2022/04/23 03:04:56;;;;;;;12.97;11.67;;;;;;;;;;4987315;28;20197;-58
2022/04/23 03:07:22;;;;;;;13.53;12.13;;;;;;;;;;4994166;28;20371;-57
2022/04/23 03:09:48;;;;;;;13.10;11.80;;;;;;;;;;4996264;28;21889;-58
2022/04/23 03:12:14;;;;;;;14.13;12.67;;;;;;;;;;5005634;28;20559;-58
2022/04/23 03:14:40;;;;;;;13.80;12.10;;;;;;;;;;4996419;28;20263;-57
2022/04/23 03:17:06;;;;;;;13.03;11.83;;;;;;;;;;4995777;28;20212;-58
2022/04/23 03:19:32;;;;;;;19.30;12.77;;;;;;;;;;5001911;28;20213;-57
2022/04/23 03:22:00;;;;;;;14.33;12.93;;;;;;;;;;4997384;28;20240;-58
2022/04/23 03:24:26;;;;;;;15.43;13.03;;;;;;;;;;5004265;28;20724;-58
2022/04/23 03:26:52;;;;;;;14.07;12.77;;;;;;;;;;4998947;28;20243;-59
2022/04/23 03:29:18;;;;;;;13.73;12.50;;;;;;;;;;5002053;28;20196;-58
2022/04/23 03:31:44;;;;;;;14.33;12.90;;;;;;;;;;5006407;28;20225;-58
2022/04/23 03:34:10;;;;;;;14.00;12.60;;;;;;;;;;5006657;28;20203;-57
2022/04/23 03:36:39;;;;;;;14.50;13.00;;;;;;;;;;4995588;28;20200;-58
2022/04/23 03:39:05;;;;;;;14.30;12.93;;;;;;;;;;4990919;28;20701;-58
2022/04/23 03:41:33;;;;;;;14.07;12.57;;;;;;;;;;4998596;28;20185;-58
2022/04/23 03:44:00;;;;;;;15.73;14.10;;;;;;;;;;5002631;28;20196;-58
2022/04/23 03:46:25;;;;;;;14.23;12.40;;;;;;;;;;4992350;28;20793;-58
2022/04/23 03:48:51;;;;;;;13.60;12.17;;;;;;;;;;4988446;28;20228;-58
2022/04/23 03:51:17;;;;;;;14.97;13.47;;;;;;;;;;4994287;28;20692;-58
2022/04/23 03:53:43;;;;;;;14.87;12.63;;;;;;;;;;5003660;28;20742;-58
2022/04/23 03:56:09;;;;;;;14.87;13.47;;;;;;;;;;4998085;28;20332;-58
2022/04/23 03:58:35;;;;;;;15.97;14.27;;;;;;;;;;4997729;28;20484;-58
2022/04/23 04:01:01;;;;;;;15.80;14.20;;;;;;;;;;5003842;28;20231;-59
2022/04/23 04:03:27;;;;;;;14.90;13.40;;;;;;;;;;4992311;28;20562;-58
2022/04/23 04:05:54;;;;;;;15.00;13.53;;;;;;;;;;5000279;28;20187;-57
2022/04/23 04:08:20;;;;;;;14.53;13.13;;;;;;;;;;4997295;28;20271;-58
2022/04/23 04:10:46;;;;;;;15.40;13.80;;;;;;;;;;4998020;28;20197;-58
2022/04/23 04:13:13;;;;;;;15.63;14.10;;;;;;;;;;5001136;28;20583;-58
2022/04/23 04:15:40;;;;;;;15.43;13.83;;;;;;;;;;4998612;28;20288;-58
2022/04/23 04:18:06;;;;;;;14.43;12.97;;;;;;;;;;4999987;28;20467;-57
2022/04/23 04:20:32;;;;;;;14.87;13.47;;;;;;;;;;5002640;28;20744;-57
2022/04/23 04:22:58;;;;;;;14.83;13.33;;;;;;;;;;4996689;28;20250;-59
2022/04/23 04:25:24;;;;;;;14.37;13.07;;;;;;;;;;4992526;28;20997;-59
2022/04/23 04:27:50;;;;;;;14.90;13.33;;;;;;;;;;4991266;28;20193;-59
2022/04/23 04:30:16;;;;;;;15.30;13.83;;;;;;;;;;5003722;28;20556;-58
2022/04/23 04:32:42;;;;;;;16.27;14.27;;;;;;;;;;5000456;28;20228;-58
2022/04/23 04:35:09;;;;;;;16.23;14.23;;;;;;;;;;4998220;28;20282;-57
2022/04/23 04:37:35;;;;;;;16.07;14.37;;;;;;;;;;5004556;28;20706;-58
2022/04/23 04:40:01;;;;;;;15.70;14.03;;;;;;;;;;5001410;28;20295;-58
2022/04/23 04:42:27;;;;;;;15.90;14.40;;;;;;;;;;4995978;28;20821;-58
2022/04/23 04:44:53;;;;;;;17.40;14.47;;;;;;;;;;5001983;28;20607;-58
2022/04/23 04:47:19;;;;;;;16.63;14.67;;;;;;;;;;4992096;28;20192;-59
2022/04/23 04:49:45;;;;;;;15.90;14.30;;;;;;;;;;4986877;28;20271;-58
2022/04/23 04:52:11;;;;;;;15.83;14.33;;;;;;;;;;4996004;28;20203;-58
2022/04/23 04:54:37;;;;;;;16.07;14.47;;;;;;;;;;4999417;28;20197;-58
2022/04/23 04:57:03;;;;;;;16.13;14.30;;;;;;;;;;5001124;28;20589;-59
2022/04/23 04:59:32;;;;;;;15.50;13.93;;;;;;;;;;5002772;28;20210;-58
2022/04/23 05:01:59;;;;;;;15.40;13.80;;;;;;;;;;4993917;28;20195;-57
2022/04/23 05:04:25;;;;;;;15.53;13.77;;;;;;;;;;4999513;28;20184;-58
2022/04/23 05:06:51;;;;;;;16.20;14.60;;;;;;;;;;4999843;28;20228;-57
2022/04/23 05:09:17;;;;;;;15.67;14.07;;;;;;;;;;4997756;28;20192;-58
2022/04/23 05:11:43;;;;;;;16.20;14.47;;;;;;;;;;4999033;28;20189;-57
2022/04/23 05:14:09;;;;;;;15.67;14.17;;;;;;;;;;5000177;28;20202;-58
2022/04/23 05:16:35;;;;;;;15.50;13.87;;;;;;;;;;5001459;28;20631;-58
2022/04/23 05:19:01;;;;;;;15.70;14.17;;;;;;;;;;4998850;28;20217;-57
2022/04/23 05:21:27;;;;;;;15.43;13.93;;;;;;;;;;4995105;28;20651;-58
2022/04/23 05:23:53;;;;;;;15.43;13.93;;;;;;;;;;4994611;28;20616;-58
2022/04/23 05:26:19;;;;;;;15.40;13.90;;;;;;;;;;4992743;28;20178;-58
2022/04/23 05:28:45;;;;;;;15.03;13.63;;;;;;;;;;4995489;28;20190;-58
2022/04/23 05:31:11;;;;;;;16.30;14.37;;;;;;;;;;4998588;28;20277;-57
2022/04/23 05:33:38;;;;;;;16.23;14.53;;;;;;;;;;5000617;28;20216;-59
2022/04/23 05:36:06;;;;;;;16.10;14.40;;;;;;;;;;4998131;28;20189;-58
2022/04/23 05:38:32;;;;;;;16.43;14.73;;;;;;;;;;4999269;28;20304;-57
2022/04/23 05:40:58;;;;;;;15.63;14.07;;;;;;;;;;5003833;28;20193;-58
2022/04/23 05:43:24;;;;;;;15.73;14.07;;;;;;;;;;5002652;28;20185;-58
2022/04/23 05:45:50;;;;;;;15.93;14.37;;;;;;;;;;5001749;28;20198;-58
2022/04/23 05:48:16;;;;;;;14.93;13.53;;;;;;;;;;5002858;28;20231;-58
2022/04/23 05:50:42;;;;;;;16.20;14.60;;;;;;;;;;5007599;28;20225;-58
2022/04/23 05:53:08;;;;;;;15.87;14.27;;;;;;;;;;5006289;28;20945;-57
2022/04/23 05:55:35;;;;;;;15.57;13.93;;;;;;;;;;4994857;28;20737;-57
2022/04/23 05:58:01;;;;;;;15.57;13.87;;;;;;;;;;5001598;28;20284;-58
2022/04/23 06:00:27;;;;;;;15.13;13.63;;;;;;;;;;5005621;28;20256;-58
2022/04/23 06:02:53;;;;;;;14.90;13.47;;;;;;;;;;5002055;28;20300;-57
2022/04/23 06:05:19;;;;;;;16.37;14.03;;;;;;;;;;4994664;28;20248;-59
2022/04/23 06:07:45;;;;;;;15.80;14.03;;;;;;;;;;4998399;28;20225;-59
2022/04/23 06:10:11;;;;;;;15.93;14.33;;;;;;;;;;5001861;28;20186;-58
2022/04/23 06:12:37;;;;;;;15.63;14.03;;;;;;;;;;5002044;28;20196;-58
2022/04/23 06:15:03;;;;;;;17.93;14.63;;;;;;;;;;5005912;28;20281;-58
2022/04/23 06:17:29;;;;;;;17.40;15.60;;;;;;;;;;5001295;28;20193;-58
2022/04/23 06:19:55;;;;;;;17.20;13.87;;;;;;;;;;5006930;28;20223;-58
2022/04/23 06:22:22;;;;;;;16.10;14.47;;;;;;;;;;5007400;28;20227;-58
2022/04/23 06:24:48;;;;;;;17.33;14.07;;;;;;;;;;5007760;28;20197;-58
2022/04/23 06:27:14;;;;;;;15.17;13.63;;;;;;;;;;4995749;28;20197;-58
2022/04/23 06:29:40;;;;;;;14.70;13.30;;;;;;;;;;5004290;28;20328;-59
2022/04/23 06:32:06;;;;;;;16.07;14.47;;;;;;;;;;4997160;28;20792;-58
2022/04/23 06:34:34;;;;;;;15.30;13.77;;;;;;;;;;5005670;28;20232;-57
2022/04/23 06:37:00;;;;;;;15.97;14.43;;;;;;;;;;5000452;28;20662;-58
2022/04/23 06:39:25;;;;;;;15.87;14.47;;;;;;;;;;5001150;28;20252;-59
2022/04/23 06:41:51;;;;;;;15.40;13.23;;;;;;;;;;5003009;28;20201;-58
2022/04/23 06:44:17;;;;;;;15.40;13.80;;;;;;;;;;4999958;28;20197;-59
2022/04/23 06:46:44;;;;;;;15.47;13.77;;;;;;;;;;4988807;28;20330;-58
2022/04/23 06:49:11;;;;;;;14.27;12.87;;;;;;;;;;4995027;28;20194;-58
2022/04/23 06:51:37;;;;;;;16.23;14.27;;;;;;;;;;5001169;28;20224;-58
2022/04/23 06:54:03;;;;;;;14.90;13.50;;;;;;;;;;5002085;28;20221;-58
2022/04/23 06:56:30;;;;;;;14.73;13.30;;;;;;;;;;5000273;28;20193;-58
2022/04/23 06:58:56;;;;;;;14.83;13.33;;;;;;;;;;4997290;28;20221;-57
2022/04/23 07:01:22;;;;;;;13.90;12.60;;;;;;;;;;5006132;28;20193;-58
2022/04/23 07:03:48;;;;;;;14.83;13.33;;;;;;;;;;5003117;28;20220;-59
2022/04/23 07:06:15;;;;;;;14.50;13.00;;;;;;;;;;5001432;28;20615;-58
2022/04/23 07:08:43;;;;;;;14.63;13.30;;;;;;;;;;5007338;28;20616;-58
2022/04/23 07:11:09;;;;;;;13.73;12.40;;;;;;;;;;5007714;28;20209;-58
2022/04/23 07:13:35;;;;;;;14.20;12.80;;;;;;;;;;4995679;28;20198;-57
2022/04/23 07:16:03;;;;;;;14.97;13.20;;;;;;;;;;5005102;28;20205;-58
2022/04/23 07:18:29;;;;;;;14.07;12.70;;;;;;;;;;4995752;28;20583;-58
2022/04/23 07:20:55;;;;;;;15.00;13.17;;;;;;;;;;4989094;28;20243;-58
2022/04/23 07:26:06;;;;;;;14.17;12.80;;;;;;;;;;4998056;28;20403;-59
2022/04/23 07:28:32;;;;;;;14.80;13.40;;;;;;;;;;4998819;28;20658;-58
2022/04/23 07:31:00;;;;;;;13.40;11.60;;;;;;;;;;5006625;28;20309;-59
2022/04/23 07:38:55;;;;;;;12.07;10.87;;;;;;;;;;4990801;28;20282;-58
2022/04/23 07:41:21;;;;;;;12.43;11.23;;;;;;;;;;4997323;28;20201;-58
2022/04/23 07:43:46;;;;;;;11.57;10.57;;;;;;;;;;4986451;28;20189;-58
2022/04/23 07:46:12;;;;;;;12.33;10.67;;;;;;;;;;4999078;28;20189;-58
2022/04/23 07:48:38;;;;;;;11.07;10.07;;;;;;;;;;4989919;28;20204;-59
2022/04/23 07:51:04;;;;;;;11.27;10.20;;;;;;;;;;4998863;28;20284;-58
2022/04/23 07:53:30;;;;;;;10.93;9.87;;;;;;;;;;4990255;28;20196;-59
2022/04/23 07:55:57;;;;;;;11.40;10.20;;;;;;;;;;4989698;28;20673;-59
2022/04/23 07:58:23;;;;;;;9.93;8.93;;;;;;;;;;4992296;28;20295;-58
2022/04/23 08:00:48;;;;;;;10.17;9.27;;;;;;;;;;4983176;28;20628;-59
2022/04/23 08:03:15;;;;;;;10.07;9.03;;;;;;;;;;4985443;28;20310;-58
2022/04/23 08:05:41;;;;;;;17.87;9.13;;;;;;;;;;4972165;28;22523;-54
2022/04/23 08:08:07;;;;;;;13.37;11.27;;;;;;;;;;4991246;28;20314;-56
2022/04/23 08:10:33;;;;;;;13.90;11.63;;;;;;;;;;4979291;28;20603;-56
2022/04/23 08:12:59;;;;;;;13.90;11.47;;;;;;;;;;4986967;28;20197;-56
2022/04/23 08:15:26;;;;;;;12.97;10.73;;;;;;;;;;4999328;28;20189;-56
2022/04/23 08:17:52;;;;;;;12.73;11.53;;;;;;;;;;5002613;28;20189;-56
2022/04/23 08:20:18;;;;;;;14.30;10.97;;;;;;;;;;5003997;28;20408;-55
2022/04/23 08:22:44;;;;;;;16.10;11.57;;;;;;;;;;5000363;28;20182;-56
2022/04/23 08:25:11;;;;;;;13.00;11.03;;;;;;;;;;5001579;28;20191;-55
2022/04/23 08:30:53;;;;;;;11.87;10.60;;;;;;;;;;5002889;28;20824;-55
2022/04/23 08:33:19;;;;;;;12.27;10.97;;;;;;;;;;4995965;28;20189;-56
2022/04/23 08:35:45;;;;;;;12.53;11.20;;;;;;;;;;5003132;28;20208;-56
2022/04/23 08:38:11;;;;;;;12.20;10.90;;;;;;;;;;5003087;28;20237;-56
2022/04/23 08:40:41;;;;;;;12.33;11.17;;;;;;;;;;4997543;28;20278;-56
2022/04/23 08:43:07;;;;;;;13.57;10.53;;;;;;;;;;4993136;28;20294;-57
2022/04/23 08:45:35;;;;;;;12.10;11.00;;;;;;;;;;4995745;28;20193;-57
2022/04/23 08:48:01;;;;;;;11.17;10.17;;;;;;;;;;4993403;28;20216;-58
2022/04/23 08:50:27;;;;;;;10.70;9.80;;;;;;;;;;4998911;28;20201;-57
2022/04/23 08:52:56;;;;;;;11.07;10.07;;;;;;;;;;4991389;28;20798;-58
2022/04/23 08:55:22;;;;;;;10.60;9.60;;;;;;;;;;4992461;28;20193;-58
2022/04/23 08:57:48;;;;;;;11.03;9.83;;;;;;;;;;4988489;28;20193;-58
2022/04/23 09:00:15;;;;;;;9.97;9.07;;;;;;;;;;4988371;28;20290;-60
2022/04/23 09:02:42;;;;;;;11.37;9.33;;;;;;;;;;4995416;28;20182;-58
2022/04/23 09:05:08;;;;;;;13.77;9.53;;;;;;;;;;4998656;28;21011;-58
2022/04/23 09:07:34;;;;;;;14.53;10.20;;;;;;;;;;4995290;28;20209;-58
2022/04/23 09:10:00;;;;;;;16.85;9.85;;;;;;;;;;4987645;28;20550;-57
2022/04/23 09:12:27;;;;;;;9.93;8.45;;;;;;;;;;4997409;28;20841;-58
2022/04/23 09:14:54;;;;;;;15.27;9.15;;;;;;;;;;4997490;28;20275;-58
2022/04/23 09:25:42;;;;;;;9.20;8.07;;;;;;;;;;4997712;28;20188;-57
2022/04/23 09:28:15;;;;;;;9.77;8.35;;;;;;;;;;4986609;28;20190;-60
2022/04/23 09:30:41;;;;;;;9.93;8.98;;;;;;;;;;4989278;28;97957;-57
2022/04/23 09:33:06;;;;;;;12.18;9.32;;;;;;;;;;4994540;28;20598;-58
2022/04/23 09:35:32;;;;;;;14.02;9.88;;;;;;;;;;4997661;28;20707;-58
2022/04/23 09:38:14;;;;;;;9.88;9.05;;;;;;;;;;4994748;28;20209;-58
2022/04/23 09:40:40;;;;;;;9.88;8.93;;;;;;;;;;4992920;28;20807;-58
2022/04/23 09:43:07;;;;;;;11.88;9.55;;;;;;;;;;4987582;28;20273;-58
2022/04/23 09:45:36;;;;;;;11.55;10.05;;;;;;;;;;4999720;28;20296;-59
2022/04/23 09:48:05;;;;;;;10.98;8.80;;;;;;;;;;4988377;28;20279;-59
2022/04/23 09:50:37;;;;;;;9.20;8.30;;;;;;;;;;4991437;28;20204;-59
2022/04/23 09:53:19;;;;;;;14.40;9.02;;;;;;;;;;4991058;28;20524;-59
2022/04/23 09:55:45;;;;;;;11.48;8.48;;;;;;;;;;4997137;28;20203;-60
2022/04/23 09:58:11;;;;;;;13.90;9.18;;;;;;;;;;4991672;28;20241;-59
2022/04/23 10:00:47;;;;;;;9.45;8.18;;;;;;;;;;4999907;28;20193;-59
2022/04/23 10:03:13;;;;;;;13.75;9.10;;;;;;;;;;4996512;28;20177;-59
2022/04/23 10:05:48;;;;;;;10.23;9.23;;;;;;;;;;4990527;28;20606;-60
2022/04/23 10:08:15;;;;;;;9.60;8.80;;;;;;;;;;4991607;28;20234;-59
2022/04/23 10:10:42;;;;;;;10.07;9.07;;;;;;;;;;4996197;28;20193;-59
2022/04/23 10:13:08;;;;;;;9.48;8.57;;;;;;;;;;4996844;28;20691;-59
2022/04/23 10:15:34;;;;;;;11.98;8.63;;;;;;;;;;4993531;28;20225;-59
2022/04/23 10:18:01;;;;;;;8.80;7.90;;;;;;;;;;4995889;28;20248;-60
2022/04/23 10:20:29;;;;;;;9.20;8.40;;;;;;;;;;4994997;28;20190;-60
2022/04/23 10:23:05;;;;;;;11.82;8.82;;;;;;;;;;4999820;28;20196;-60
2022/04/23 10:25:34;;;;;;;9.88;8.20;;;;;;;;;;4997890;28;20188;-57
2022/04/23 10:28:00;;;;;;;9.30;8.27;;;;;;;;;;5000617;28;20197;-57
2022/04/23 10:30:27;;;;;;;9.35;8.45;;;;;;;;;;4997572;28;20251;-57
2022/04/23 10:32:53;;;;;;;8.40;7.68;;;;;;;;;;5000979;28;20233;-57
2022/04/23 10:35:19;;;;;;;10.20;8.48;;;;;;;;;;5001999;28;20689;-57
2022/04/23 10:37:51;;;;;;;10.70;8.88;;;;;;;;;;4995717;28;20553;-56
2022/04/23 10:40:19;;;;;;;9.27;8.32;;;;;;;;;;5003266;28;20186;-57
2022/04/23 10:43:04;;;;;;;16.70;8.65;;;;;;;;;;4999204;28;20240;-57
2022/04/23 10:45:33;;;;;;;12.98;7.72;;;;;;;;;;5003608;28;20251;-57
2022/04/23 10:48:18;;;;;;;8.80;7.85;;;;;;;;;;4999393;28;20173;-57
2022/04/23 10:50:58;;;;;;;8.82;7.68;;;;;;;;;;5002282;28;20777;-57
2022/04/23 10:53:28;;;;;;;9.85;7.75;;;;;;;;;;4998382;28;20182;-57
2022/04/23 10:56:13;;;;;;;9.85;8.45;;;;;;;;;;4997222;28;20186;-57
2022/04/23 10:58:40;;;;;;;8.77;8.05;;;;;;;;;;5002886;28;20785;-57
2022/04/23 11:01:22;;;;;;;12.00;8.10;;;;;;;;;;4995301;28;20199;-57
2022/04/23 11:03:57;;;;;;;8.40;7.68;;;;;;;;;;5000368;28;20193;-57
2022/04/23 11:12:20;;;;;;;8.93;8.10;;;;;;;;;;4997597;28;20340;-57
2022/04/23 11:14:51;;;;;;;9.35;8.45;;;;;;;;;;4998511;28;20196;-56
2022/04/23 11:17:24;;;;;;;9.75;8.70;;;;;;;;;;4996421;28;20537;-57
2022/04/23 11:19:53;;;;;;;10.98;8.02;;;;;;;;;;4992874;28;21116;-57
2022/04/23 11:22:20;;;;;;;16.02;8.60;;;;;;;;;;4997730;28;20181;-56
2022/04/23 11:24:48;;;;;;;10.70;8.50;;;;;;;;;;4994107;28;20189;-59
2022/04/23 11:27:24;;;;;;;8.93;8.13;;;;;;;;;;5004583;28;20182;-59
2022/04/23 11:29:54;;;;;;;9.45;8.27;;;;;;;;;;5002988;28;20246;-59
2022/04/23 11:32:26;;;;;;;8.38;7.55;;;;;;;;;;4994543;28;20255;-59
2022/04/23 11:34:58;;;;;;;8.35;7.47;;;;;;;;;;4998241;28;20189;-59
2022/04/23 11:37:36;;;;;;;7.78;7.10;;;;;;;;;;4995866;28;20328;-59
2022/04/23 11:40:06;;;;;;;8.80;8.00;;;;;;;;;;4998557;28;20212;-59
2022/04/23 11:42:38;;;;;;;11.43;8.07;;;;;;;;;;5000540;28;20197;-59
2022/04/23 11:45:05;;;;;;;8.25;7.20;;;;;;;;;;5002304;28;20196;-59
2022/04/23 11:47:31;;;;;;;8.75;7.72;;;;;;;;;;4991736;28;20276;-58
2022/04/23 11:50:12;;;;;;;12.30;7.57;;;;;;;;;;5002529;28;20193;-57
2022/04/23 11:52:39;;;;;;;8.77;7.95;;;;;;;;;;4993830;28;20696;-57
2022/04/23 11:55:05;;;;;;;11.48;8.30;;;;;;;;;;4995625;28;20193;-57
2022/04/23 11:57:31;;;;;;;8.70;7.85;;;;;;;;;;4992252;28;20681;-58
2022/04/23 12:00:00;;;;;;;10.63;7.43;;;;;;;;;;4990293;28;20235;-58
2022/04/23 12:02:26;;;;;;;8.43;7.63;;;;;;;;;;4975741;28;20331;-58
2022/04/23 12:05:00;;;;;;;8.10;7.30;;;;;;;;;;4980429;28;20192;-58
2022/04/23 12:07:26;;;;;;;10.10;6.15;;;;;;;;;;4978947;28;20296;-58
2022/04/23 12:09:52;;;;;;;12.95;6.30;;;;;;;;;;4994623;28;20601;-58
2022/04/23 12:12:22;;;;;;;7.75;6.10;;;;;;;;;;4990776;28;20244;-59
2022/04/23 12:14:48;;;;;;;7.90;5.93;;;;;;;;;;4989393;28;20296;-56
2022/04/23 12:17:21;;;;;;;7.38;6.72;;;;;;;;;;4995962;28;20729;-57
2022/04/23 12:19:48;;;;;;;9.18;7.38;;;;;;;;;;4996897;28;20272;-59
2022/04/23 12:22:22;;;;;;;7.88;7.25;;;;;;;;;;4993185;28;20805;-59
2022/04/23 12:24:48;;;;;;;8.38;7.57;;;;;;;;;;5002455;28;20180;-59
2022/04/23 12:27:14;;;;;;;8.80;7.57;;;;;;;;;;4986612;28;20201;-59
2022/04/23 12:40:58;;;;;;;7.97;7.18;;;;;;;;;;4978430;28;20212;-59
2022/04/23 12:43:33;;;;;;;7.18;6.47;;;;;;;;;;4984460;28;20185;-58
2022/04/23 12:46:04;;;;;;;6.57;5.35;;;;;;;;;;4977673;28;20184;-58
2022/04/23 12:48:30;;;;;;;8.52;7.63;;;;;;;;;;4995540;28;20760;-60
2022/04/23 12:51:05;;;;;;;9.32;7.60;;;;;;;;;;5004813;28;20189;-59
2022/04/23 12:53:31;;;;;;;8.20;7.20;;;;;;;;;;4995038;28;20188;-58
2022/04/23 12:55:59;;;;;;;8.85;8.05;;;;;;;;;;4986262;28;20247;-58
2022/04/23 12:58:25;;;;;;;11.48;8.15;;;;;;;;;;4993066;28;20263;-59
2022/04/23 13:00:52;;;;;;;8.35;6.97;;;;;;;;;;4996850;28;20201;-59
2022/04/23 13:05:47;;;;;;;9.75;7.45;;;;;;;;;;4998277;28;20311;-59
2022/04/23 13:11:24;;;;;;;10.07;7.55;;;;;;;;;;4991256;28;20295;-59
2022/04/23 13:13:47;;;;;;;8.32;7.53;;;;;;;;;;4987229;28;20309;-59
2022/04/23 13:16:13;;;;;;;9.32;8.43;;;;;;;;;;4991924;28;20573;-59
2022/04/23 13:18:39;;;;;;;10.65;8.57;;;;;;;;;;4994496;28;20430;-59
2022/04/23 13:21:05;;;;;;;9.10;8.32;;;;;;;;;;4998724;28;20189;-59
2022/04/23 13:23:32;;;;;;;9.10;8.13;;;;;;;;;;4989466;28;20198;-59
2022/04/23 13:25:58;;;;;;;9.02;8.23;;;;;;;;;;4995647;28;21016;-59
2022/04/23 13:28:25;;;;;;;23.55;8.25;;;;;;;;;;4979085;28;20189;-59
2022/04/23 13:30:51;;;;;;;11.88;8.13;;;;;;;;;;4984677;28;20661;-59
2022/04/23 13:33:17;;;;;;;9.45;8.60;;;;;;;;;;4991134;28;20193;-59
2022/04/23 13:35:43;;;;;;;11.20;9.18;;;;;;;;;;4994584;28;20197;-59
2022/04/23 13:38:13;;;;;;;10.10;8.02;;;;;;;;;;4988290;28;20213;-59
2022/04/23 13:40:39;;;;;;;9.77;8.77;;;;;;;;;;4995290;28;20189;-60
2022/04/23 13:43:05;;;;;;;9.27;8.35;;;;;;;;;;4981490;28;20329;-60
2022/04/23 13:45:31;;;;;;;9.10;8.30;;;;;;;;;;4996613;28;20193;-60
2022/04/23 13:47:58;;;;;;;12.05;9.10;;;;;;;;;;4992766;28;20666;-59
2022/04/23 13:50:24;;;;;;;9.80;8.93;;;;;;;;;;4988315;28;20197;-60
2022/04/23 13:52:50;;;;;;;11.95;8.82;;;;;;;;;;4995404;28;20546;-60
2022/04/23 13:55:16;;;;;;;10.60;9.65;;;;;;;;;;4987228;28;20189;-59
2022/04/23 13:57:42;;;;;;;9.63;8.73;;;;;;;;;;4991867;28;20186;-58
2022/04/23 14:00:08;;;;;;;12.48;8.85;;;;;;;;;;4985667;28;20220;-59
2022/04/23 14:10:48;;;;;;;9.23;8.32;;;;;;;;;;4997450;28;20189;-59
2022/04/23 14:13:14;;;;;;;8.43;7.70;;;;;;;;;;4995371;28;20702;-59
2022/04/23 14:15:40;;;;;;;9.60;8.70;;;;;;;;;;4994704;28;20643;-59
2022/04/23 14:18:07;;;;;;;10.85;8.00;;;;;;;;;;5000704;28;20204;-59
2022/04/23 14:20:33;;;;;;;16.50;9.75;;;;;;;;;;4983961;28;20246;-59
2022/04/23 14:23:01;;;;;;;10.88;9.23;;;;;;;;;;4978143;28;20586;-58
2022/04/23 14:25:27;;;;;;;11.00;10.00;;;;;;;;;;4972065;28;20537;-62
2022/04/23 14:27:53;;;;;;;10.52;9.43;;;;;;;;;;4991230;28;20190;-59
2022/04/23 14:30:19;;;;;;;10.98;8.93;;;;;;;;;;4994361;28;20194;-57
2022/04/23 14:32:45;;;;;;;9.70;8.63;;;;;;;;;;4998910;28;20256;-58
2022/04/23 14:35:11;;;;;;;8.77;8.05;;;;;;;;;;4992637;28;20235;-57
2022/04/23 14:37:37;;;;;;;9.90;8.48;;;;;;;;;;4991433;28;20196;-60
2022/04/23 14:40:04;;;;;;;9.13;8.32;;;;;;;;;;5000873;28;20287;-60
2022/04/23 14:42:30;;;;;;;10.13;8.68;;;;;;;;;;4999325;28;21403;-60
2022/04/23 14:44:56;;;;;;;12.32;8.93;;;;;;;;;;5004762;28;21337;-60
2022/04/23 14:47:22;;;;;;;9.73;8.70;;;;;;;;;;4994288;28;20670;-60
2022/04/23 14:49:48;;;;;;;12.88;9.75;;;;;;;;;;4999566;28;20735;-59
2022/04/23 14:54:59;;;;;;;10.45;9.45;;;;;;;;;;5001954;28;20224;-60
2022/04/23 14:57:25;;;;;;;10.85;9.75;;;;;;;;;;5005644;28;20188;-60
2022/04/23 14:59:51;;;;;;;10.68;9.02;;;;;;;;;;5001471;28;20333;-57
2022/04/23 15:02:17;;;;;;;10.80;8.63;;;;;;;;;;4995433;28;20185;-57
2022/04/23 15:04:43;;;;;;;9.77;8.82;;;;;;;;;;4992023;28;20560;-57
2022/04/23 15:07:09;;;;;;;9.70;8.80;;;;;;;;;;5006874;28;20599;-57
2022/04/23 15:09:34;;;;;;;10.48;8.85;;;;;;;;;;5002589;28;20742;-57
2022/04/23 15:12:00;;;;;;;10.25;9.25;;;;;;;;;;4994850;28;20189;-58
2022/04/23 15:14:26;;;;;;;10.80;9.75;;;;;;;;;;5000435;28;21947;-57
2022/04/23 15:16:53;;;;;;;9.80;8.80;;;;;;;;;;5002488;28;20185;-57
2022/04/23 15:19:19;;;;;;;9.27;8.37;;;;;;;;;;5000934;28;20322;-57
2022/04/23 15:21:45;;;;;;;9.77;8.80;;;;;;;;;;5002575;28;20799;-57